To NAV CANADA Home Page Login to a new session Search on AWWS site Feedback and Comments Disclaimer Vers la page française équivalente Tips FAQ What's new on the site To the Forecasts and Observations / NOTAM section To "File a Flight Plan" website Publications and other links Update of the User's profile FIC Telephone Numbers My Weather Data Folder Route Weather Data Regional Weather Data Local Weather Data To the Forecasts and Observations / NOTAM section
Request Generated 05/30/2016 at 08:34:49 UTC . Weather information available at that time is displayed.

METAR/TAF

WHITEHORSE/ERIK NIELSEN INTL/YT    

METAR CYXY 300800Z 15003KT 15SM SCT110 BKN220 05/03 A3010 RMK AS3CI3
SLP218=
METAR CYXY 300700Z 16003KT 40SM SCT095 BKN140 OVC210 07/04 A3009 RMK
AC4AS2CI2 SLP214=
METAR CYXY 300600Z 16004KT 40SM SCT063 BKN080 OVC140 08/03 A3008 RMK
SC3AC3AC2 CVCTV CLD EMBD SLP212=

TAF CYXY 300538Z 3006/3106 VRB03KT P6SM SCT040 BKN080 TEMPO 3006/3009
P6SM -SHRA BKN040 OVC080
FM301500 16008KT P6SM BKN050 TEMPO 3015/3106 P6SM -SHRA SCT015
BKN040
RMK NXT FCST BY 301200Z=
Your time UTC time
Weather data provided by Environment Canada and NAV CANADA